createdAt,value
2022-08-21T00:00:09.143Z,100152.31
2022-08-21T00:00:46.062Z,100148.44
2022-08-21T00:01:23.426Z,100147.63
2022-08-21T00:01:59.603Z,100153.94
2022-08-21T00:02:35.786Z,100146.53
2022-08-21T00:03:12.719Z,100144.91
2022-08-21T00:03:51.338Z,100149.56
2022-08-21T00:04:30.379Z,100146.00
2022-08-21T00:05:11.750Z,100152.00
2022-08-21T00:05:53.075Z,100145.72
2022-08-21T00:06:35.472Z,100140.53
2022-08-21T00:07:14.694Z,100145.16
2022-08-21T00:07:55.453Z,100143.84
2022-08-21T00:08:32.524Z,100144.34
2022-08-21T00:09:08.566Z,100143.03
2022-08-21T00:09:46.079Z,100141.91
2022-08-21T00:10:22.706Z,100140.81
2022-08-21T00:10:59.539Z,100140.81
2022-08-21T00:11:35.727Z,100138.88
2022-08-21T00:12:11.865Z,100144.34
2022-08-21T00:12:48.098Z,100136.97
2022-08-21T00:13:24.594Z,100144.34
2022-08-21T00:14:00.979Z,100150.38
2022-08-21T00:14:37.998Z,100144.91
2022-08-21T00:15:13.872Z,100134.22
2022-08-21T00:15:51.071Z,100139.41
2022-08-21T00:16:27.781Z,100141.34
2022-08-21T00:17:06.864Z,100143.78
2022-08-21T00:17:45.975Z,100143.78
2022-08-21T00:18:27.391Z,100142.97
2022-08-21T00:19:08.930Z,100136.69
2022-08-21T00:19:48.299Z,100138.31
2022-08-21T00:20:26.407Z,100143.78
2022-08-21T00:21:09.750Z,100141.34
2022-08-21T00:21:52.011Z,100142.97
2022-08-21T00:23:44.224Z,100141.88
2022-08-21T00:24:19.972Z,100134.47
2022-08-21T00:24:56.684Z,100139.94
2022-08-21T00:25:33.224Z,100140.75
2022-08-21T00:26:10.394Z,100134.47
2022-08-21T00:26:47.240Z,100139.94
2022-08-21T00:27:24.154Z,100133.66
2022-08-21T00:28:00.648Z,100136.38
2022-08-21T00:28:36.540Z,100128.97
2022-08-21T00:29:13.051Z,100133.66
2022-08-21T00:29:49.425Z,100136.09
2022-08-21T00:30:26.051Z,100130.09
2022-08-21T00:31:02.452Z,100138.31
2022-08-21T00:31:38.318Z,100128.19
2022-08-21T00:32:15.008Z,100127.34
2022-08-21T00:32:51.106Z,100125.44
2022-08-21T00:33:27.571Z,100124.63
2022-08-21T00:34:07.006Z,100125.44
2022-08-21T00:34:47.243Z,100127.34
2022-08-21T00:35:29.670Z,100120.78
2022-08-21T00:36:14.230Z,100119.66
2022-08-21T00:37:01.086Z,100128.97
2022-08-21T00:37:43.472Z,100127.06
2022-08-21T00:38:25.601Z,100128.19
2022-08-21T00:39:04.024Z,100128.19
2022-08-21T00:39:40.700Z,100124.31
2022-08-21T00:40:18.317Z,100131.72
2022-08-21T00:40:55.437Z,100124.63
2022-08-21T00:41:38.451Z,100128.19
2022-08-21T00:42:14.960Z,100128.97
2022-08-21T00:42:53.722Z,100128.97
2022-08-21T00:43:34.951Z,100126.25
2022-08-21T00:44:18.814Z,100127.94
2022-08-21T00:44:58.389Z,100128.09
2022-08-21T00:45:35.896Z,100129.91
2022-08-21T00:46:13.073Z,100132.00
2022-08-21T00:46:50.173Z,100128.03
2022-08-21T00:47:27.377Z,100133.50
2022-08-21T00:48:03.625Z,100126.41
2022-08-21T00:48:40.374Z,100131.88
2022-08-21T00:49:16.278Z,100132.69
2022-08-21T00:49:52.868Z,100121.75
2022-08-21T00:50:29.200Z,100129.66
2022-08-21T00:51:07.734Z,100126.63
2022-08-21T00:51:44.867Z,100128.25
2022-08-21T00:52:28.106Z,100128.25
2022-08-21T00:53:11.421Z,100126.31
2022-08-21T00:53:56.436Z,100125.22
2022-08-21T00:54:38.829Z,100127.13
2022-08-21T00:55:18.847Z,100125.50
2022-08-21T00:55:59.294Z,100129.88
2022-08-21T00:56:36.308Z,100128.75
2022-08-21T00:57:13.188Z,100130.38
2022-08-21T00:57:50.324Z,100123.81
2022-08-21T00:58:27.313Z,100122.69
2022-08-21T00:59:03.442Z,100122.09
2022-08-21T00:59:40.244Z,100122.59
2022-08-21T01:00:17.019Z,100125.03
2022-08-21T01:00:53.816Z,100118.44
2022-08-21T01:01:30.520Z,100119.25
2022-08-21T01:02:06.917Z,100119.78
2022-08-21T01:02:43.428Z,100113.50
2022-08-21T01:03:23.567Z,100123.63
2022-08-21T01:04:03.745Z,100123.31
2022-08-21T01:04:43.749Z,100121.41
2022-08-21T01:05:22.806Z,100115.94
2022-08-21T01:06:03.896Z,100118.38
2022-08-21T01:06:44.892Z,100127.38
2022-08-21T01:07:27.643Z,100118.38
2022-08-21T01:08:07.369Z,100115.63
2022-08-21T01:08:52.114Z,100116.44
2022-08-21T01:09:31.018Z,100119.19
2022-08-21T01:10:23.748Z,100119.19
2022-08-21T01:11:04.683Z,100114.50
2022-08-21T01:11:45.340Z,100114.50
2022-08-21T01:12:25.467Z,100119.69
2022-08-21T01:13:05.263Z,100112.28
2022-08-21T01:13:43.764Z,100118.56
2022-08-21T01:14:19.847Z,100113.09
2022-08-21T01:14:56.050Z,100117.47
2022-08-21T01:15:32.870Z,100120.19
2022-08-21T01:16:08.809Z,100117.16
2022-08-21T01:16:45.494Z,100121.00
2022-08-21T01:17:24.654Z,100119.09
2022-08-21T01:18:00.855Z,100116.66
2022-08-21T01:18:36.571Z,100117.47
2022-08-21T01:19:13.423Z,100115.03
2022-08-21T01:19:50.543Z,100112.28
2022-08-21T01:20:32.658Z,100125.16
2022-08-21T01:21:09.234Z,100117.25
2022-08-21T01:21:47.966Z,100121.63
2022-08-21T01:22:24.623Z,100121.91
2022-08-21T01:23:00.490Z,100122.81
2022-08-21T01:23:35.445Z,100113.88
2022-08-21T01:24:11.569Z,100115.38
2022-08-21T01:24:48.100Z,100120.13
2022-08-21T01:25:25.405Z,100119.69
2022-08-21T01:26:02.065Z,100119.78
2022-08-21T01:26:41.849Z,100116.22
2022-08-21T01:27:19.997Z,100116.22
2022-08-21T01:28:00.624Z,100110.75
2022-08-21T01:28:43.810Z,100114.28
2022-08-21T01:29:23.512Z,100113.19
2022-08-21T01:30:05.540Z,100113.50
2022-08-21T01:30:43.219Z,100113.50
2022-08-21T01:31:24.801Z,100108.31
2022-08-21T01:32:04.349Z,100105.59
2022-08-21T01:32:42.381Z,100110.25
2022-08-21T01:33:18.440Z,100108.31
2022-08-21T01:33:54.859Z,100110.25
2022-08-21T01:34:30.963Z,100106.69
2022-08-21T01:35:07.597Z,100112.97
2022-08-21T01:35:44.137Z,100107.50
2022-08-21T01:36:20.521Z,100111.88
2022-08-21T01:36:57.124Z,100106.38
2022-08-21T01:37:34.084Z,100117.84
2022-08-21T01:38:11.141Z,100112.66
2022-08-21T01:38:47.298Z,100113.78
2022-08-21T01:39:23.373Z,100118.44
2022-08-21T01:39:59.295Z,100111.66
2022-08-21T01:40:35.841Z,100115.50
2022-08-21T01:41:12.849Z,100117.41
2022-08-21T01:41:50.502Z,100119.03
2022-08-21T01:42:26.664Z,100117.41
2022-08-21T01:43:03.913Z,100118.53
2022-08-21T01:43:46.051Z,100120.16
2022-08-21T01:44:26.405Z,100122.59
2022-08-21T01:45:07.114Z,100122.88
2022-08-21T01:45:48.572Z,100123.69
2022-08-21T01:46:29.852Z,100117.41
2022-08-21T01:47:13.156Z,100111.94
2022-08-21T01:47:54.572Z,100119.34
2022-08-21T01:48:32.143Z,100120.16
2022-08-21T01:49:07.590Z,100116.31
2022-08-21T01:49:43.939Z,100118.53
2022-08-21T01:50:20.610Z,100118.53
2022-08-21T01:50:57.265Z,100118.53
2022-08-21T01:51:33.812Z,100117.41
2022-08-21T01:52:09.971Z,100119.84
2022-08-21T01:52:46.315Z,100122.06
2022-08-21T01:53:27.844Z,100116.59
2022-08-21T01:54:08.441Z,100116.91
2022-08-21T01:54:44.353Z,100118.81
2022-08-21T01:55:20.333Z,100119.63
2022-08-21T01:55:56.291Z,100114.97
2022-08-21T01:56:31.997Z,100111.44
2022-08-21T01:57:08.620Z,100114.97
2022-08-21T01:57:45.492Z,100108.41
2022-08-21T01:58:22.004Z,100120.16
2022-08-21T01:58:58.202Z,100111.94
2022-08-21T01:59:33.628Z,100117.94
2022-08-21T02:00:09.971Z,100111.34
2022-08-21T02:00:48.121Z,100114.38
2022-08-21T02:01:26.898Z,100116.31
2022-08-21T02:02:06.125Z,100113.56
2022-08-21T02:02:46.667Z,100111.94
2022-08-21T02:03:35.696Z,100110.31
2022-08-21T02:04:16.562Z,100116.59
2022-08-21T02:04:57.483Z,100114.16
2022-08-21T02:05:37.389Z,100114.16
2022-08-21T02:06:18.865Z,100120.44
2022-08-21T02:06:57.394Z,100114.16
2022-08-21T02:07:34.344Z,100112.53
2022-08-21T02:08:10.681Z,100118.00
2022-08-21T02:08:47.136Z,100118.00
2022-08-21T02:09:22.960Z,100116.38
2022-08-21T02:10:00.595Z,100116.38
2022-08-21T02:10:37.221Z,100112.84
2022-08-21T02:11:15.416Z,100116.69
2022-08-21T02:11:51.769Z,100112.31
2022-08-21T02:12:28.037Z,100105.22
2022-08-21T02:13:04.223Z,100111.50
2022-08-21T02:13:40.493Z,100116.97
2022-08-21T02:14:32.347Z,100112.31
2022-08-21T02:15:08.118Z,100108.78
2022-08-21T02:15:44.796Z,100104.41
2022-08-21T02:16:21.769Z,100109.88
2022-08-21T02:17:05.251Z,100110.69
2022-08-21T02:17:44.255Z,100104.72
2022-08-21T02:18:21.499Z,100106.34
2022-08-21T02:18:57.773Z,100101.97
2022-08-21T02:19:39.548Z,100102.78
2022-08-21T02:20:15.818Z,100100.06
2022-08-21T02:20:56.002Z,100100.06
2022-08-21T02:21:31.676Z,100096.50
2022-08-21T02:22:08.633Z,100102.78
2022-08-21T02:22:45.324Z,100095.69
2022-08-21T02:23:21.413Z,100103.91
2022-08-21T02:24:02.828Z,100105.53
2022-08-21T02:24:53.972Z,100095.41
2022-08-21T02:25:34.321Z,100102.50
2022-08-21T02:26:10.438Z,100097.84
2022-08-21T02:26:47.400Z,100099.75
2022-08-21T02:27:26.570Z,100098.13
2022-08-21T02:28:02.860Z,100098.13
2022-08-21T02:28:39.523Z,100098.13
2022-08-21T02:29:16.858Z,100097.31
2022-08-21T02:29:52.383Z,100096.50
2022-08-21T02:30:29.014Z,100101.16
2022-08-21T02:31:05.309Z,100095.69
2022-08-21T02:31:42.147Z,100097.31
2022-08-21T02:32:18.815Z,100098.13
2022-08-21T02:32:55.677Z,100091.03
2022-08-21T02:33:32.081Z,100094.59
2022-08-21T02:34:08.444Z,100095.69
2022-08-21T02:34:44.837Z,100100.06
2022-08-21T02:35:21.366Z,100094.59
2022-08-21T02:35:58.875Z,100094.88
2022-08-21T02:36:37.379Z,100092.97
2022-08-21T02:37:20.306Z,100095.69
2022-08-21T02:38:01.439Z,100094.06
2022-08-21T02:38:40.894Z,100091.34
2022-08-21T02:39:17.824Z,100094.88
2022-08-21T02:40:04.049Z,100094.88
2022-08-21T02:40:47.957Z,100098.44
2022-08-21T02:41:26.139Z,100094.06
2022-08-21T02:42:03.746Z,100093.25
2022-08-21T02:42:40.295Z,100096.00
2022-08-21T02:43:16.567Z,100093.56
2022-08-21T02:43:52.910Z,100095.19
2022-08-21T02:44:34.503Z,100100.66
2022-08-21T02:45:10.000Z,100093.56
2022-08-21T02:45:46.278Z,100107.22
2022-08-21T02:46:23.025Z,100094.38
2022-08-21T02:48:09.907Z,100090.00
2022-08-21T02:48:57.116Z,100099.03
2022-08-21T02:49:36.982Z,100090.00
2022-08-21T02:50:23.569Z,100097.41
2022-08-21T02:51:08.147Z,100086.75
2022-08-21T02:51:50.058Z,100090.59
2022-08-21T02:52:36.024Z,100086.75
2022-08-21T02:53:16.400Z,100094.66
2022-08-21T02:54:03.249Z,100091.94
2022-08-21T02:54:56.121Z,100090.81
2022-08-21T02:55:39.044Z,100089.19
2022-08-21T02:56:21.469Z,100090.81
2022-08-21T02:57:07.085Z,100093.03
2022-08-21T02:58:45.715Z,100085.66
2022-08-21T02:59:33.429Z,100092.22
2022-08-21T03:01:25.653Z,100088.38
2022-08-21T03:02:24.122Z,100085.94
2022-08-21T03:03:20.532Z,100079.38
2022-08-21T03:04:06.420Z,100084.84
2022-08-21T03:04:53.513Z,100080.47
2022-08-21T03:05:39.869Z,100080.47
2022-08-21T03:06:25.072Z,100076.94
2022-08-21T03:07:11.586Z,100086.25
2022-08-21T03:07:55.493Z,100083.81
2022-08-21T03:08:48.291Z,100078.34
2022-08-21T03:09:33.129Z,100083.81
2022-08-21T03:10:15.723Z,100085.44
2022-08-21T03:11:00.900Z,100079.97
2022-08-21T03:11:43.855Z,100085.72
2022-08-21T03:12:31.443Z,100086.84
2022-08-21T03:13:16.153Z,100086.84
2022-08-21T03:13:59.509Z,100086.53
2022-08-21T03:14:41.410Z,100084.91
2022-08-21T03:15:28.284Z,100078.63
2022-08-21T03:16:18.596Z,100080.25
2022-08-21T03:17:03.914Z,100084.91
2022-08-21T03:17:54.870Z,100076.19
2022-08-21T03:18:45.412Z,100083.28
2022-08-21T03:19:36.707Z,100083.00
2022-08-21T03:21:23.852Z,100082.69
2022-08-21T03:22:18.512Z,100086.75
2022-08-21T03:25:07.833Z,100084.03
2022-08-21T03:26:14.773Z,100079.38
2022-08-21T03:27:17.503Z,100084.53
2022-08-21T03:28:26.323Z,100084.53
2022-08-21T03:29:33.862Z,100083.72
2022-08-21T03:31:21.539Z,100084.84
2022-08-21T03:32:31.203Z,100083.22
2022-08-21T03:33:30.988Z,100088.97
2022-08-21T03:36:17.024Z,100081.59
2022-08-21T03:37:21.684Z,100085.13
2022-08-21T03:38:08.875Z,100082.91
2022-08-21T03:38:56.423Z,100082.91
2022-08-21T03:39:39.019Z,100080.47
2022-08-21T03:40:21.039Z,100076.94
2022-08-21T03:41:06.852Z,100083.22
2022-08-21T03:41:49.090Z,100078.56
2022-08-21T03:42:39.942Z,100086.75
2022-08-21T03:43:20.675Z,100084.84
2022-08-21T03:44:08.256Z,100090.31
2022-08-21T03:44:57.577Z,100093.84
2022-08-21T03:45:50.454Z,100091.41
2022-08-21T03:46:52.466Z,100090.91
2022-08-21T03:47:50.678Z,100088.97
2022-08-21T03:48:32.961Z,100091.72
2022-08-21T03:49:19.005Z,100087.88
2022-08-21T03:50:05.013Z,100091.41
2022-08-21T03:50:47.698Z,100087.56
2022-08-21T03:51:30.091Z,100085.66
2022-08-21T03:52:16.577Z,100090.81
2022-08-21T03:53:06.732Z,100088.38
2022-08-21T03:54:02.954Z,100081.00
2022-08-21T03:54:52.042Z,100089.19
2022-08-21T03:56:38.356Z,100083.72
2022-08-21T03:57:26.416Z,100084.84
2022-08-21T03:59:03.325Z,100089.50
2022-08-21T03:59:50.700Z,100091.13
2022-08-21T04:00:36.247Z,100090.00
2022-08-21T04:01:19.854Z,100092.44
2022-08-21T04:02:06.659Z,100092.97
2022-08-21T04:02:53.962Z,100090.75
2022-08-21T04:03:38.552Z,100089.41
2022-08-21T04:04:24.946Z,100096.50
2022-08-21T04:05:16.839Z,100090.53
2022-08-21T04:06:03.921Z,100096.81
2022-08-21T04:06:55.010Z,100093.78
2022-08-21T04:07:42.565Z,100094.88
2022-08-21T04:08:37.567Z,100096.50
2022-08-21T04:09:45.524Z,100097.31
2022-08-21T04:10:35.264Z,100097.31
2022-08-21T04:11:19.627Z,100093.78
2022-08-21T04:12:03.878Z,100096.50
2022-08-21T04:12:55.236Z,100094.06
2022-08-21T04:13:46.792Z,100095.19
2022-08-21T04:14:43.148Z,100095.19
2022-08-21T04:15:31.151Z,100093.25
2022-08-21T04:16:14.506Z,100096.50
2022-08-21T04:17:55.050Z,100086.38
2022-08-21T04:18:38.312Z,100095.69
2022-08-21T04:19:27.567Z,100098.44
2022-08-21T04:20:30.154Z,100093.25
2022-08-21T04:21:18.296Z,100094.66
2022-08-21T04:22:13.179Z,100095.78
2022-08-21T04:23:24.376Z,100100.44
2022-08-21T04:24:09.012Z,100100.13
2022-08-21T04:24:56.489Z,100093.03
2022-08-21T04:25:52.632Z,100107.81
2022-08-21T04:26:37.811Z,100105.91
2022-08-21T04:27:31.574Z,100105.09
2022-08-21T04:28:21.199Z,100105.09
2022-08-21T04:29:08.729Z,100106.19
2022-08-21T04:30:04.425Z,100103.47
2022-08-21T04:30:48.892Z,100108.94
2022-08-21T04:32:29.429Z,100103.16
2022-08-21T04:33:17.529Z,100106.19
2022-08-21T04:34:05.046Z,100103.97
2022-08-21T04:34:49.355Z,100105.09
2022-08-21T04:35:34.204Z,100110.03
2022-08-21T04:36:24.429Z,100103.47
2022-08-21T04:37:06.673Z,100110.03
2022-08-21T04:37:51.681Z,100105.38
2022-08-21T04:38:38.030Z,100110.03
2022-08-21T04:39:29.499Z,100106.19
2022-08-21T04:40:09.308Z,100109.22
2022-08-21T04:40:56.708Z,100112.78
2022-08-21T04:41:41.947Z,100104.88
2022-08-21T04:42:29.261Z,100107.59
2022-08-21T04:43:14.752Z,100106.50
2022-08-21T04:44:01.638Z,100108.41
2022-08-21T04:44:56.320Z,100110.34
2022-08-21T04:45:49.730Z,100102.94
2022-08-21T04:47:41.762Z,100108.13
2022-08-21T04:49:44.751Z,100110.56
2022-08-21T04:52:41.098Z,100103.75
2022-08-21T04:53:46.265Z,100110.34
2022-08-21T04:54:31.718Z,100114.16
2022-08-21T04:55:14.405Z,100105.75
2022-08-21T04:55:59.653Z,100105.75
2022-08-21T04:56:45.039Z,100099.19
2022-08-21T04:57:39.736Z,100106.56
2022-08-21T04:58:32.857Z,100101.63
2022-08-21T04:59:18.382Z,100102.44
2022-08-21T05:00:12.299Z,100102.94
2022-08-21T05:01:01.632Z,100103.25
2022-08-21T05:01:47.559Z,100106.50
2022-08-21T05:02:37.786Z,100110.34
2022-08-21T05:03:24.899Z,100108.72
2022-08-21T05:04:08.961Z,100111.75
2022-08-21T05:04:54.563Z,100105.75
2022-08-21T05:05:39.400Z,100108.78
2022-08-21T05:06:27.444Z,100106.34
2022-08-21T05:07:09.320Z,100106.34
2022-08-21T05:08:04.449Z,100109.59
2022-08-21T05:09:01.756Z,100105.75
2022-08-21T05:09:46.775Z,100113.38
2022-08-21T05:10:46.944Z,100111.16
2022-08-21T05:12:48.282Z,100107.81
2022-08-21T05:13:36.765Z,100111.97
2022-08-21T05:14:45.456Z,100103.53
2022-08-21T05:15:40.988Z,100108.19
2022-08-21T05:16:37.355Z,100112.84
2022-08-21T05:17:25.182Z,100107.97
2022-08-21T05:18:12.853Z,100110.41
2022-08-21T05:19:07.660Z,100113.44
2022-08-21T05:19:54.940Z,100113.44
2022-08-21T05:20:58.591Z,100109.06
2022-08-21T05:21:42.351Z,100116.97
2022-08-21T05:22:33.418Z,100111.81
2022-08-21T05:23:19.697Z,100114.25
2022-08-21T05:25:10.285Z,100119.41
2022-08-21T05:25:54.583Z,100111.50
2022-08-21T05:26:45.923Z,100111.22
2022-08-21T05:27:33.060Z,100118.59
2022-08-21T05:28:20.936Z,100107.97
2022-08-21T05:29:04.456Z,100113.72
2022-08-21T05:29:51.019Z,100112.91
2022-08-21T05:30:36.243Z,100112.91
2022-08-21T05:31:24.259Z,100116.75
2022-08-21T05:32:06.466Z,100116.75
2022-08-21T05:32:53.377Z,100119.50
2022-08-21T05:33:44.022Z,100118.97
2022-08-21T05:34:26.719Z,100116.25
2022-08-21T05:35:11.382Z,100120.09
2022-08-21T05:35:56.012Z,100120.91
2022-08-21T05:36:38.032Z,100120.91
2022-08-21T05:37:30.848Z,100117.34
2022-08-21T05:38:16.828Z,100121.19
2022-08-21T05:39:09.042Z,100123.13
2022-08-21T05:40:22.633Z,100118.47
2022-08-21T05:41:03.883Z,100118.47
2022-08-21T05:41:52.845Z,100110.25
2022-08-21T05:42:54.828Z,100120.38
2022-08-21T05:43:37.892Z,100118.75
2022-08-21T05:44:27.061Z,100112.47
2022-08-21T05:45:14.520Z,100113.59
2022-08-21T05:45:58.174Z,100114.69
2022-08-21T05:46:48.595Z,100108.94
2022-08-21T05:48:32.114Z,100115.22
2022-08-21T05:50:21.687Z,100121.47
2022-08-21T05:51:09.975Z,100117.13
2022-08-21T05:51:55.840Z,100123.69
2022-08-21T05:52:40.744Z,100120.69
2022-08-21T05:53:24.580Z,100115.22
2022-08-21T05:54:09.973Z,100120.69
2022-08-21T05:54:58.427Z,100114.41
2022-08-21T05:55:46.142Z,100118.75
2022-08-21T05:56:29.857Z,100116.03
2022-08-21T05:57:14.879Z,100113.81
2022-08-21T05:57:58.249Z,100114.91
2022-08-21T05:58:42.756Z,100110.84
2022-08-21T05:59:30.255Z,100114.69
2022-08-21T06:00:14.778Z,100108.41
2022-08-21T06:00:58.252Z,100111.97
2022-08-21T06:01:43.720Z,100116.63
2022-08-21T06:02:24.249Z,100106.78
2022-08-21T06:03:10.136Z,100111.97
2022-08-21T06:03:56.762Z,100109.53
2022-08-21T06:04:42.449Z,100116.91
2022-08-21T06:05:37.124Z,100113.06
2022-08-21T06:07:20.305Z,100113.06
2022-08-21T06:08:12.934Z,100115.78
2022-08-21T06:09:06.674Z,100111.16
2022-08-21T06:09:57.670Z,100108.13
2022-08-21T06:10:45.670Z,100111.97
2022-08-21T06:11:33.598Z,100114.69
2022-08-21T06:12:22.184Z,100111.97
2022-08-21T06:13:07.262Z,100111.16
2022-08-21T06:14:51.471Z,100104.56
2022-08-21T06:15:42.224Z,100112.78
2022-08-21T06:16:32.043Z,100109.22
2022-08-21T06:17:20.562Z,100112.78
2022-08-21T06:18:14.815Z,100114.69
2022-08-21T06:20:05.867Z,100118.53
2022-08-21T06:20:56.529Z,100110.03
2022-08-21T06:21:49.536Z,100109.22
2022-08-21T06:22:43.765Z,100111.97
2022-08-21T06:24:28.761Z,100114.41
2022-08-21T06:25:21.058Z,100108.94
2022-08-21T06:26:08.455Z,100116.03
2022-08-21T06:26:57.905Z,100108.13
2022-08-21T06:27:47.725Z,100115.22
2022-08-21T06:29:45.142Z,100106.50
2022-08-21T06:30:57.794Z,100117.13
2022-08-21T06:31:52.468Z,100110.84
2022-08-21T06:32:45.140Z,100110.84
2022-08-21T06:33:48.991Z,100108.94
2022-08-21T06:34:52.646Z,100111.66
2022-08-21T06:35:46.508Z,100108.63
2022-08-21T06:36:33.356Z,100102.34
2022-08-21T06:37:22.602Z,100105.09
2022-08-21T06:38:04.475Z,100101.25
2022-08-21T06:38:50.906Z,100113.00
2022-08-21T06:39:40.945Z,100107.53
2022-08-21T06:40:30.846Z,100106.41
2022-08-21T06:41:26.300Z,100103.69
2022-08-21T06:42:10.136Z,100103.69
2022-08-21T06:42:57.447Z,100104.78
2022-08-21T06:44:47.698Z,100104.50
2022-08-21T06:45:35.753Z,100101.47
2022-08-21T06:46:24.647Z,100107.22
2022-08-21T06:47:14.408Z,100099.03
2022-08-21T06:48:02.092Z,100104.50
2022-08-21T06:50:48.091Z,100102.28
2022-08-21T06:51:45.574Z,100096.81
2022-08-21T06:52:36.774Z,100096.00
2022-08-21T06:53:29.193Z,100094.91
2022-08-21T06:54:12.046Z,100097.63
2022-08-21T06:54:59.241Z,100092.47
2022-08-21T06:55:54.832Z,100087.28
2022-08-21T06:56:40.152Z,100094.38
2022-08-21T06:57:36.441Z,100093.56
2022-08-21T06:58:29.697Z,100096.28
2022-08-21T06:59:22.134Z,100094.91
2022-08-21T07:01:10.279Z,100093.78
2022-08-21T07:02:02.983Z,100092.97
2022-08-21T07:02:49.130Z,100102.81
2022-08-21T07:03:33.028Z,100095.72
2022-08-21T07:04:16.239Z,100104.44
2022-08-21T07:05:15.575Z,100106.34
2022-08-21T07:07:50.435Z,100102.50
2022-08-21T07:08:45.420Z,100101.69
2022-08-21T07:09:36.947Z,100099.25
2022-08-21T07:10:48.594Z,100104.44
2022-08-21T07:11:47.442Z,100096.22
2022-08-21T07:12:41.851Z,100097.84
2022-08-21T07:14:34.337Z,100099.47
2022-08-21T07:15:26.029Z,100101.41
2022-08-21T07:16:13.379Z,100107.16
2022-08-21T07:17:05.393Z,100104.44
2022-08-21T07:17:56.012Z,100097.03
2022-08-21T07:18:44.546Z,100106.56
2022-08-21T07:19:34.433Z,100097.84
2022-08-21T07:21:31.227Z,100101.69
2022-08-21T07:22:39.624Z,100092.38
2022-08-21T07:23:28.854Z,100102.50
2022-08-21T07:24:18.614Z,100097.03
2022-08-21T07:25:30.155Z,100100.06
2022-08-21T07:26:20.069Z,100097.63
2022-08-21T07:27:09.822Z,100091.06
2022-08-21T07:29:48.379Z,100102.56
2022-08-21T07:30:41.567Z,100096.59
2022-08-21T07:31:27.710Z,100098.50
2022-08-21T07:33:22.627Z,100105.09
2022-08-21T07:34:12.692Z,100107.53
2022-08-21T07:35:04.573Z,100099.31
2022-08-21T07:35:56.538Z,100102.06
2022-08-21T07:36:41.181Z,100103.97
2022-08-21T07:37:26.974Z,100101.25
2022-08-21T07:38:11.621Z,100104.28
2022-08-21T07:38:57.399Z,100099.63
2022-08-21T07:39:42.129Z,100106.72
2022-08-21T07:40:29.858Z,100100.44
2022-08-21T07:41:14.220Z,100103.16
2022-08-21T07:41:58.262Z,100104.28
2022-08-21T07:42:41.690Z,100105.91
2022-08-21T07:43:23.769Z,100105.91
2022-08-21T07:44:09.305Z,100100.44
2022-08-21T07:44:57.475Z,100100.94
2022-08-21T07:46:44.008Z,100097.63
2022-08-21T07:47:42.271Z,100103.09
2022-08-21T07:49:31.455Z,100097.13
2022-08-21T07:51:30.016Z,100098.50
2022-08-21T07:52:36.993Z,100099.84
2022-08-21T07:54:33.999Z,100098.44
2022-08-21T07:55:17.057Z,100092.16
2022-08-21T07:56:57.559Z,100100.88
2022-08-21T07:57:49.124Z,100102.81
2022-08-21T07:58:35.289Z,100099.53
2022-08-21T07:59:24.768Z,100097.91
2022-08-21T08:00:26.863Z,100097.34
2022-08-21T08:01:18.766Z,100090.75
2022-08-21T08:02:03.538Z,100093.19
2022-08-21T08:02:52.820Z,100093.78
2022-08-21T08:03:38.366Z,100089.13
2022-08-21T08:04:50.875Z,100094.91
2022-08-21T08:05:40.611Z,100096.81
2022-08-21T08:06:34.205Z,100100.06
2022-08-21T08:07:23.123Z,100095.41
2022-08-21T08:08:13.940Z,100095.41
2022-08-21T08:09:03.833Z,100099.25
2022-08-21T08:09:55.855Z,100097.63
2022-08-21T08:10:58.679Z,100092.16
2022-08-21T08:11:45.391Z,100097.34
2022-08-21T08:12:33.373Z,100094.31
2022-08-21T08:13:23.761Z,100095.94
2022-08-21T08:14:13.508Z,100098.66
2022-08-21T08:15:04.828Z,100099.78
2022-08-21T08:15:54.269Z,100097.03
2022-08-21T08:16:41.447Z,100087.22
2022-08-21T08:17:26.088Z,100087.72
2022-08-21T08:18:19.856Z,100092.91
2022-08-21T08:19:05.198Z,100092.59
2022-08-21T08:19:55.285Z,100094.22
2022-08-21T08:20:50.654Z,100093.63
2022-08-21T08:21:43.119Z,100093.03
2022-08-21T08:22:30.915Z,100086.75
2022-08-21T08:24:18.998Z,100090.81
2022-08-21T08:25:18.646Z,100086.16
2022-08-21T08:26:29.227Z,100087.56
2022-08-21T08:28:40.530Z,100084.31
2022-08-21T08:31:50.972Z,100082.63
2022-08-21T08:32:32.140Z,100084.25
2022-08-21T08:33:14.005Z,100083.13
2022-08-21T08:34:01.341Z,100084.84
2022-08-21T08:34:45.287Z,100085.94
2022-08-21T08:35:39.413Z,100081.59
2022-08-21T08:36:33.614Z,100084.31
2022-08-21T08:37:34.221Z,100078.84
2022-08-21T08:39:27.041Z,100079.38
2022-08-21T08:40:17.587Z,100085.34
2022-08-21T08:41:03.518Z,100075.22
2022-08-21T08:41:48.539Z,100082.31
2022-08-21T08:42:45.816Z,100083.66
2022-08-21T08:43:45.464Z,100080.91
2022-08-21T08:44:30.322Z,100079.00
2022-08-21T08:45:13.572Z,100082.53
2022-08-21T08:45:59.058Z,100075.16
2022-08-21T08:48:39.906Z,100084.97
2022-08-21T08:49:17.796Z,100083.06
2022-08-21T08:49:54.949Z,100068.56
2022-08-21T08:50:31.524Z,100083.06
2022-08-21T08:51:08.693Z,100077.59
2022-08-21T08:51:46.525Z,100077.59
2022-08-21T08:52:23.208Z,100080.31
2022-08-21T08:53:00.563Z,100077.59
2022-08-21T08:53:36.818Z,100079.22
2022-08-21T08:54:12.960Z,100082.75
2022-08-21T08:54:50.491Z,100077.28
2022-08-21T08:55:27.362Z,100076.47
2022-08-21T08:56:07.609Z,100077.28
2022-08-21T08:56:49.365Z,100080.03
2022-08-21T08:57:39.955Z,100080.84
2022-08-21T08:58:20.634Z,100082.75
2022-08-21T08:58:57.120Z,100082.75
2022-08-21T08:59:34.858Z,100078.09
2022-08-21T09:00:12.612Z,100072.63
2022-08-21T09:00:49.746Z,100076.47
2022-08-21T09:01:26.167Z,100079.50
2022-08-21T09:02:03.577Z,100076.78
2022-08-21T09:02:40.709Z,100069.38
2022-08-21T09:03:17.672Z,100080.31
2022-08-21T09:03:55.160Z,100072.94
2022-08-21T09:04:32.747Z,100069.09
2022-08-21T09:05:15.356Z,100076.47
2022-08-21T09:05:54.891Z,100073.44
2022-08-21T09:06:31.502Z,100076.47
2022-08-21T09:07:08.558Z,100068.28
2022-08-21T09:07:45.563Z,100066.34
2022-08-21T09:08:24.198Z,100067.16
2022-08-21T09:09:00.381Z,100061.69
2022-08-21T09:09:36.474Z,100074.25
2022-08-21T09:10:13.514Z,100073.44
2022-08-21T09:10:53.630Z,100063.31
2022-08-21T09:11:30.812Z,100061.69
2022-08-21T09:12:07.632Z,100069.59
2022-08-21T09:12:44.260Z,100060.59
2022-08-21T09:13:22.592Z,100068.78
2022-08-21T09:14:02.587Z,100058.66
2022-08-21T09:14:38.648Z,100061.38
2022-08-21T09:15:14.398Z,100063.31
2022-08-21T09:15:50.541Z,100066.88
2022-08-21T09:16:26.644Z,100058.66
2022-08-21T09:17:03.438Z,100063.00
2022-08-21T09:17:43.821Z,100055.94
2022-08-21T09:18:23.445Z,100069.28
2022-08-21T09:18:59.875Z,100061.38